sensor_id;sensor_type;location;lat;lon;timestamp;temperature;humidity
2603;DHT22;1311;47.966;7.958;2023-05-10T00:01:15;13.20;99.90
2603;DHT22;1311;47.966;7.958;2023-05-10T00:03:43;13.20;99.90
2603;DHT22;1311;47.966;7.958;2023-05-10T00:06:10;13.20;99.90
2603;DHT22;1311;47.966;7.958;2023-05-10T00:08:37;13.20;99.90
2603;DHT22;1311;47.966;7.958;2023-05-10T00:11:04;13.20;99.90
2603;DHT22;1311;47.966;7.958;2023-05-10T00:13:31;13.20;99.90
2603;DHT22;1311;47.966;7.958;2023-05-10T00:15:58;13.20;99.90
2603;DHT22;1311;47.966;7.958;2023-05-10T00:18:24;13.20;99.90
2603;DHT22;1311;47.966;7.958;2023-05-10T00:20:53;13.30;99.90
2603;DHT22;1311;47.966;7.958;2023-05-10T00:23:19;13.30;99.90
2603;DHT22;1311;47.966;7.958;2023-05-10T00:25:46;13.20;99.90
2603;DHT22;1311;47.966;7.958;2023-05-10T00:28:13;13.30;99.90
2603;DHT22;1311;47.966;7.958;2023-05-10T00:30:40;13.20;99.90
2603;DHT22;1311;47.966;7.958;2023-05-10T00:33:06;13.20;99.90
2603;DHT22;1311;47.966;7.958;2023-05-10T00:35:33;13.20;99.90
2603;DHT22;1311;47.966;7.958;2023-05-10T00:38:01;13.30;99.90
2603;DHT22;1311;47.966;7.958;2023-05-10T00:40:28;13.30;99.90
2603;DHT22;1311;47.966;7.958;2023-05-10T00:42:56;13.20;99.90
2603;DHT22;1311;47.966;7.958;2023-05-10T00:45:23;13.20;99.90
2603;DHT22;1311;47.966;7.958;2023-05-10T00:47:50;13.20;99.90
2603;DHT22;1311;47.966;7.958;2023-05-10T00:50:20;13.30;99.90
2603;DHT22;1311;47.966;7.958;2023-05-10T00:52:47;13.20;99.90
2603;DHT22;1311;47.966;7.958;2023-05-10T00:55:15;13.20;99.90
2603;DHT22;1311;47.966;7.958;2023-05-10T00:57:42;13.20;99.90
2603;DHT22;1311;47.966;7.958;2023-05-10T01:00:10;13.20;99.90
2603;DHT22;1311;47.966;7.958;2023-05-10T01:02:43;13.20;99.90
2603;DHT22;1311;47.966;7.958;2023-05-10T01:05:10;13.20;99.90
2603;DHT22;1311;47.966;7.958;2023-05-10T01:07:37;13.20;99.90
2603;DHT22;1311;47.966;7.958;2023-05-10T01:10:04;13.10;99.90
2603;DHT22;1311;47.966;7.958;2023-05-10T01:12:33;13.10;99.90
2603;DHT22;1311;47.966;7.958;2023-05-10T01:15:01;13.10;99.90
2603;DHT22;1311;47.966;7.958;2023-05-10T01:17:28;13.10;99.90
2603;DHT22;1311;47.966;7.958;2023-05-10T01:19:54;13.10;99.90
2603;DHT22;1311;47.966;7.958;2023-05-10T01:22:39;13.10;99.90
2603;DHT22;1311;47.966;7.958;2023-05-10T01:25:30;13.10;99.90
2603;DHT22;1311;47.966;7.958;2023-05-10T01:28:32;13.10;99.90
2603;DHT22;1311;47.966;7.958;2023-05-10T01:31:25;13.10;99.90
2603;DHT22;1311;47.966;7.958;2023-05-10T01:33:59;13.10;99.90
2603;DHT22;1311;47.966;7.958;2023-05-10T01:36:30;13.10;99.90
2603;DHT22;1311;47.966;7.958;2023-05-10T01:39:02;13.20;99.90
2603;DHT22;1311;47.966;7.958;2023-05-10T01:41:43;13.20;99.90
2603;DHT22;1311;47.966;7.958;2023-05-10T01:44:17;13.20;99.90
2603;DHT22;1311;47.966;7.958;2023-05-10T01:46:50;13.20;99.90
2603;DHT22;1311;47.966;7.958;2023-05-10T01:49:23;13.20;99.90
2603;DHT22;1311;47.966;7.958;2023-05-10T01:51:53;13.20;99.90
2603;DHT22;1311;47.966;7.958;2023-05-10T01:54:22;13.10;99.90
2603;DHT22;1311;47.966;7.958;2023-05-10T01:56:58;13.10;99.90
2603;DHT22;1311;47.966;7.958;2023-05-10T01:59:30;13.10;99.90
2603;DHT22;1311;47.966;7.958;2023-05-10T02:02:02;13.10;99.90
2603;DHT22;1311;47.966;7.958;2023-05-10T02:04:31;13.10;99.90
2603;DHT22;1311;47.966;7.958;2023-05-10T02:06:58;13.10;99.90
2603;DHT22;1311;47.966;7.958;2023-05-10T02:09:25;13.00;99.90
2603;DHT22;1311;47.966;7.958;2023-05-10T02:11:54;13.10;99.90
2603;DHT22;1311;47.966;7.958;2023-05-10T02:14:22;13.10;99.90
2603;DHT22;1311;47.966;7.958;2023-05-10T02:16:50;13.10;99.90
2603;DHT22;1311;47.966;7.958;2023-05-10T02:19:20;13.10;99.90
2603;DHT22;1311;47.966;7.958;2023-05-10T02:21:49;13.10;99.90
2603;DHT22;1311;47.966;7.958;2023-05-10T02:24:17;13.10;99.90
2603;DHT22;1311;47.966;7.958;2023-05-10T02:26:47;13.00;99.90
2603;DHT22;1311;47.966;7.958;2023-05-10T02:29:14;13.00;99.90
2603;DHT22;1311;47.966;7.958;2023-05-10T02:31:43;13.00;99.90
2603;DHT22;1311;47.966;7.958;2023-05-10T02:34:10;12.90;99.90
2603;DHT22;1311;47.966;7.958;2023-05-10T02:36:38;13.00;99.90
2603;DHT22;1311;47.966;7.958;2023-05-10T02:39:07;13.00;99.90
2603;DHT22;1311;47.966;7.958;2023-05-10T02:41:38;13.00;99.90
2603;DHT22;1311;47.966;7.958;2023-05-10T02:44:06;13.00;99.90
2603;DHT22;1311;47.966;7.958;2023-05-10T02:46:34;13.00;99.90
2603;DHT22;1311;47.966;7.958;2023-05-10T02:49:03;13.00;99.90
2603;DHT22;1311;47.966;7.958;2023-05-10T02:51:32;13.00;99.90
2603;DHT22;1311;47.966;7.958;2023-05-10T02:54:09;12.90;99.90
2603;DHT22;1311;47.966;7.958;2023-05-10T02:56:42;12.90;99.90
2603;DHT22;1311;47.966;7.958;2023-05-10T02:59:09;12.90;99.90
2603;DHT22;1311;47.966;7.958;2023-05-10T03:01:36;12.90;99.90
2603;DHT22;1311;47.966;7.958;2023-05-10T03:04:03;12.90;99.90
2603;DHT22;1311;47.966;7.958;2023-05-10T03:06:31;12.90;99.90
2603;DHT22;1311;47.966;7.958;2023-05-10T03:08:58;12.90;99.90
2603;DHT22;1311;47.966;7.958;2023-05-10T03:11:37;12.80;99.90
2603;DHT22;1311;47.966;7.958;2023-05-10T03:14:16;12.90;99.90
2603;DHT22;1311;47.966;7.958;2023-05-10T03:16:54;12.90;99.90
2603;DHT22;1311;47.966;7.958;2023-05-10T03:19:26;12.90;99.90
2603;DHT22;1311;47.966;7.958;2023-05-10T03:21:56;13.00;99.90
2603;DHT22;1311;47.966;7.958;2023-05-10T03:24:27;12.90;99.90
2603;DHT22;1311;47.966;7.958;2023-05-10T03:26:56;12.90;99.90
2603;DHT22;1311;47.966;7.958;2023-05-10T03:29:29;13.00;99.90
2603;DHT22;1311;47.966;7.958;2023-05-10T03:31:57;12.90;99.90
2603;DHT22;1311;47.966;7.958;2023-05-10T03:34:25;12.90;99.90
2603;DHT22;1311;47.966;7.958;2023-05-10T03:36:52;12.90;99.90
2603;DHT22;1311;47.966;7.958;2023-05-10T03:39:19;12.80;99.90
2603;DHT22;1311;47.966;7.958;2023-05-10T03:41:46;12.80;99.90
2603;DHT22;1311;47.966;7.958;2023-05-10T03:44:13;12.70;99.90
2603;DHT22;1311;47.966;7.958;2023-05-10T03:46:41;12.70;99.90
2603;DHT22;1311;47.966;7.958;2023-05-10T03:49:08;12.60;99.90
2603;DHT22;1311;47.966;7.958;2023-05-10T03:51:34;12.60;99.90
2603;DHT22;1311;47.966;7.958;2023-05-10T03:54:01;12.60;99.90
2603;DHT22;1311;47.966;7.958;2023-05-10T03:56:28;12.60;99.90
2603;DHT22;1311;47.966;7.958;2023-05-10T03:58:55;12.60;99.90
2603;DHT22;1311;47.966;7.958;2023-05-10T04:01:22;12.70;99.90
2603;DHT22;1311;47.966;7.958;2023-05-10T04:03:50;12.60;99.90
2603;DHT22;1311;47.966;7.958;2023-05-10T04:06:16;12.60;99.90
2603;DHT22;1311;47.966;7.958;2023-05-10T04:08:43;12.60;99.90
2603;DHT22;1311;47.966;7.958;2023-05-10T04:11:11;12.60;99.90
2603;DHT22;1311;47.966;7.958;2023-05-10T04:13:39;12.50;99.90
2603;DHT22;1311;47.966;7.958;2023-05-10T04:16:06;12.50;99.90
2603;DHT22;1311;47.966;7.958;2023-05-10T04:18:33;12.50;99.90
2603;DHT22;1311;47.966;7.958;2023-05-10T04:21:01;12.50;99.90
2603;DHT22;1311;47.966;7.958;2023-05-10T04:23:28;12.50;99.90
2603;DHT22;1311;47.966;7.958;2023-05-10T04:25:59;12.40;99.90
2603;DHT22;1311;47.966;7.958;2023-05-10T04:28:26;12.40;99.90
2603;DHT22;1311;47.966;7.958;2023-05-10T04:30:53;12.40;99.90
2603;DHT22;1311;47.966;7.958;2023-05-10T04:33:20;12.50;99.90
2603;DHT22;1311;47.966;7.958;2023-05-10T04:35:46;12.50;99.90
2603;DHT22;1311;47.966;7.958;2023-05-10T04:38:17;12.60;99.90
2603;DHT22;1311;47.966;7.958;2023-05-10T04:40:44;12.60;99.90
2603;DHT22;1311;47.966;7.958;2023-05-10T04:43:11;12.60;99.90
2603;DHT22;1311;47.966;7.958;2023-05-10T04:45:37;12.60;99.90
2603;DHT22;1311;47.966;7.958;2023-05-10T04:48:05;12.60;99.90
2603;DHT22;1311;47.966;7.958;2023-05-10T04:50:32;12.70;99.90
2603;DHT22;1311;47.966;7.958;2023-05-10T04:52:59;12.70;99.90
2603;DHT22;1311;47.966;7.958;2023-05-10T04:55:27;12.70;99.90
2603;DHT22;1311;47.966;7.958;2023-05-10T04:57:54;12.70;99.90
2603;DHT22;1311;47.966;7.958;2023-05-10T05:00:22;12.70;99.90
2603;DHT22;1311;47.966;7.958;2023-05-10T05:02:50;12.70;99.90
2603;DHT22;1311;47.966;7.958;2023-05-10T05:05:17;12.70;99.90
2603;DHT22;1311;47.966;7.958;2023-05-10T05:07:43;12.80;99.90
2603;DHT22;1311;47.966;7.958;2023-05-10T05:10:10;12.80;99.90
2603;DHT22;1311;47.966;7.958;2023-05-10T05:12:38;12.80;99.90
2603;DHT22;1311;47.966;7.958;2023-05-10T05:15:06;12.80;99.90
2603;DHT22;1311;47.966;7.958;2023-05-10T05:17:34;12.90;99.90
2603;DHT22;1311;47.966;7.958;2023-05-10T05:20:01;12.90;99.90
2603;DHT22;1311;47.966;7.958;2023-05-10T05:22:28;12.90;99.90
2603;DHT22;1311;47.966;7.958;2023-05-10T05:24:56;12.80;99.90
2603;DHT22;1311;47.966;7.958;2023-05-10T05:27:23;12.80;99.90
2603;DHT22;1311;47.966;7.958;2023-05-10T05:29:53;12.90;99.90
2603;DHT22;1311;47.966;7.958;2023-05-10T05:32:21;12.90;99.90
2603;DHT22;1311;47.966;7.958;2023-05-10T05:34:48;12.90;99.90
2603;DHT22;1311;47.966;7.958;2023-05-10T05:37:16;12.90;99.90
2603;DHT22;1311;47.966;7.958;2023-05-10T05:39:44;12.90;99.90
2603;DHT22;1311;47.966;7.958;2023-05-10T05:42:11;12.90;99.90
2603;DHT22;1311;47.966;7.958;2023-05-10T05:44:38;12.70;99.90
2603;DHT22;1311;47.966;7.958;2023-05-10T05:47:07;12.70;99.90
2603;DHT22;1311;47.966;7.958;2023-05-10T05:49:34;12.90;99.90
2603;DHT22;1311;47.966;7.958;2023-05-10T05:52:01;13.10;99.90
2603;DHT22;1311;47.966;7.958;2023-05-10T05:54:29;13.20;99.90
2603;DHT22;1311;47.966;7.958;2023-05-10T05:56:56;13.40;99.90
2603;DHT22;1311;47.966;7.958;2023-05-10T05:59:23;13.40;99.90
2603;DHT22;1311;47.966;7.958;2023-05-10T06:01:50;13.30;99.90
2603;DHT22;1311;47.966;7.958;2023-05-10T06:04:19;13.40;99.90
2603;DHT22;1311;47.966;7.958;2023-05-10T06:06:46;13.30;99.90
2603;DHT22;1311;47.966;7.958;2023-05-10T06:09:12;13.30;99.90
2603;DHT22;1311;47.966;7.958;2023-05-10T06:11:39;13.20;99.90
2603;DHT22;1311;47.966;7.958;2023-05-10T06:14:06;13.20;99.90
2603;DHT22;1311;47.966;7.958;2023-05-10T06:16:33;13.20;99.90
2603;DHT22;1311;47.966;7.958;2023-05-10T06:19:00;13.10;99.90
2603;DHT22;1311;47.966;7.958;2023-05-10T06:21:29;13.20;99.90
2603;DHT22;1311;47.966;7.958;2023-05-10T06:23:56;13.20;99.90
2603;DHT22;1311;47.966;7.958;2023-05-10T06:26:23;13.30;99.90
2603;DHT22;1311;47.966;7.958;2023-05-10T06:28:50;13.30;99.90
2603;DHT22;1311;47.966;7.958;2023-05-10T06:31:17;13.50;99.90
2603;DHT22;1311;47.966;7.958;2023-05-10T06:33:44;13.50;99.90
2603;DHT22;1311;47.966;7.958;2023-05-10T06:36:11;13.60;99.90
2603;DHT22;1311;47.966;7.958;2023-05-10T06:38:40;13.60;99.90
2603;DHT22;1311;47.966;7.958;2023-05-10T06:41:06;13.70;99.90
2603;DHT22;1311;47.966;7.958;2023-05-10T06:43:33;13.70;99.90
2603;DHT22;1311;47.966;7.958;2023-05-10T06:46:00;13.50;99.90
2603;DHT22;1311;47.966;7.958;2023-05-10T06:48:27;13.50;99.90
2603;DHT22;1311;47.966;7.958;2023-05-10T06:50:54;13.40;99.90
2603;DHT22;1311;47.966;7.958;2023-05-10T06:53:21;13.50;99.90
2603;DHT22;1311;47.966;7.958;2023-05-10T06:55:50;13.70;99.90
2603;DHT22;1311;47.966;7.958;2023-05-10T06:58:17;13.90;99.90
2603;DHT22;1311;47.966;7.958;2023-05-10T07:00:44;14.10;99.90
2603;DHT22;1311;47.966;7.958;2023-05-10T07:03:12;14.20;99.90
2603;DHT22;1311;47.966;7.958;2023-05-10T07:05:39;14.20;99.90
2603;DHT22;1311;47.966;7.958;2023-05-10T07:08:06;14.10;99.90
2603;DHT22;1311;47.966;7.958;2023-05-10T07:10:33;14.30;99.90
2603;DHT22;1311;47.966;7.958;2023-05-10T07:13:02;14.20;99.90
2603;DHT22;1311;47.966;7.958;2023-05-10T07:15:29;14.10;99.90
2603;DHT22;1311;47.966;7.958;2023-05-10T07:17:56;13.90;99.90
2603;DHT22;1311;47.966;7.958;2023-05-10T07:20:22;14.10;99.90
2603;DHT22;1311;47.966;7.958;2023-05-10T07:22:49;14.30;99.90
2603;DHT22;1311;47.966;7.958;2023-05-10T07:25:16;14.40;99.90
2603;DHT22;1311;47.966;7.958;2023-05-10T07:27:43;14.50;99.90
2603;DHT22;1311;47.966;7.958;2023-05-10T07:30:12;14.60;99.90
2603;DHT22;1311;47.966;7.958;2023-05-10T07:32:39;14.70;99.90
2603;DHT22;1311;47.966;7.958;2023-05-10T07:35:08;14.70;99.90
2603;DHT22;1311;47.966;7.958;2023-05-10T07:37:35;14.90;99.90
2603;DHT22;1311;47.966;7.958;2023-05-10T07:40:02;14.70;99.90
2603;DHT22;1311;47.966;7.958;2023-05-10T07:42:29;14.60;99.90
2603;DHT22;1311;47.966;7.958;2023-05-10T07:44:56;14.40;99.90
2603;DHT22;1311;47.966;7.958;2023-05-10T07:47:24;14.60;99.90
2603;DHT22;1311;47.966;7.958;2023-05-10T07:49:51;14.90;99.90
2603;DHT22;1311;47.966;7.958;2023-05-10T07:52:18;15.30;99.90
2603;DHT22;1311;47.966;7.958;2023-05-10T07:54:45;15.20;99.90
2603;DHT22;1311;47.966;7.958;2023-05-10T07:57:12;15.30;99.90
2603;DHT22;1311;47.966;7.958;2023-05-10T07:59:42;15.40;99.90
2603;DHT22;1311;47.966;7.958;2023-05-10T08:02:09;15.40;99.90
2603;DHT22;1311;47.966;7.958;2023-05-10T08:04:38;15.50;99.90
2603;DHT22;1311;47.966;7.958;2023-05-10T08:07:05;16.00;99.90
2603;DHT22;1311;47.966;7.958;2023-05-10T08:09:32;16.30;99.90
2603;DHT22;1311;47.966;7.958;2023-05-10T08:11:58;15.80;99.90
2603;DHT22;1311;47.966;7.958;2023-05-10T08:14:27;15.80;99.90
2603;DHT22;1311;47.966;7.958;2023-05-10T08:16:54;15.90;99.90
2603;DHT22;1311;47.966;7.958;2023-05-10T08:19:21;15.90;99.90
2603;DHT22;1311;47.966;7.958;2023-05-10T08:21:50;15.70;99.90
2603;DHT22;1311;47.966;7.958;2023-05-10T08:24:17;15.90;99.90
2603;DHT22;1311;47.966;7.958;2023-05-10T08:26:44;16.60;99.90
2603;DHT22;1311;47.966;7.958;2023-05-10T08:29:11;16.90;99.90
2603;DHT22;1311;47.966;7.958;2023-05-10T08:31:38;17.30;99.90
2603;DHT22;1311;47.966;7.958;2023-05-10T08:34:05;17.10;99.90
2603;DHT22;1311;47.966;7.958;2023-05-10T08:36:32;16.80;99.90
2603;DHT22;1311;47.966;7.958;2023-05-10T08:39:00;17.30;99.90
2603;DHT22;1311;47.966;7.958;2023-05-10T08:41:27;17.60;99.90
2603;DHT22;1311;47.966;7.958;2023-05-10T08:43:55;17.80;99.90
2603;DHT22;1311;47.966;7.958;2023-05-10T08:46:23;17.80;99.90
2603;DHT22;1311;47.966;7.958;2023-05-10T08:48:50;18.40;99.90
2603;DHT22;1311;47.966;7.958;2023-05-10T08:51:19;18.20;99.90
2603;DHT22;1311;47.966;7.958;2023-05-10T08:53:47;18.00;99.90
2603;DHT22;1311;47.966;7.958;2023-05-10T08:56:16;17.60;99.90
2603;DHT22;1311;47.966;7.958;2023-05-10T08:58:43;18.10;99.90
2603;DHT22;1311;47.966;7.958;2023-05-10T09:01:11;18.60;99.90
2603;DHT22;1311;47.966;7.958;2023-05-10T09:03:39;18.70;99.90
2603;DHT22;1311;47.966;7.958;2023-05-10T09:06:06;19.00;99.90
2603;DHT22;1311;47.966;7.958;2023-05-10T09:08:33;18.90;99.90
2603;DHT22;1311;47.966;7.958;2023-05-10T09:11:01;18.80;99.90
2603;DHT22;1311;47.966;7.958;2023-05-10T09:13:29;18.70;99.90
2603;DHT22;1311;47.966;7.958;2023-05-10T09:15:57;18.80;99.90
2603;DHT22;1311;47.966;7.958;2023-05-10T09:18:24;18.90;99.90
2603;DHT22;1311;47.966;7.958;2023-05-10T09:20:51;19.00;99.90
2603;DHT22;1311;47.966;7.958;2023-05-10T09:23:18;18.80;99.90
2603;DHT22;1311;47.966;7.958;2023-05-10T09:25:45;18.70;99.90
2603;DHT22;1311;47.966;7.958;2023-05-10T09:28:12;19.10;99.90
2603;DHT22;1311;47.966;7.958;2023-05-10T09:30:40;19.10;99.90
2603;DHT22;1311;47.966;7.958;2023-05-10T09:33:08;19.40;99.90
2603;DHT22;1311;47.966;7.958;2023-05-10T09:35:35;19.60;99.90
2603;DHT22;1311;47.966;7.958;2023-05-10T09:38:03;19.10;99.90
2603;DHT22;1311;47.966;7.958;2023-05-10T09:40:31;18.90;92.40
2603;DHT22;1311;47.966;7.958;2023-05-10T09:42:59;18.40;1.00
2603;DHT22;1311;47.966;7.958;2023-05-10T09:45:28;18.60;1.00
2603;DHT22;1311;47.966;7.958;2023-05-10T09:47:57;18.10;1.00
2603;DHT22;1311;47.966;7.958;2023-05-10T09:50:26;17.90;1.00
2603;DHT22;1311;47.966;7.958;2023-05-10T09:52:55;18.00;1.00
2603;DHT22;1311;47.966;7.958;2023-05-10T09:55:25;18.30;1.00
2603;DHT22;1311;47.966;7.958;2023-05-10T09:57:59;18.00;1.00
2603;DHT22;1311;47.966;7.958;2023-05-10T10:00:26;18.20;1.00
2603;DHT22;1311;47.966;7.958;2023-05-10T10:02:55;18.60;99.90
2603;DHT22;1311;47.966;7.958;2023-05-10T10:05:29;18.30;1.00
2603;DHT22;1311;47.966;7.958;2023-05-10T10:07:57;18.50;99.90
2603;DHT22;1311;47.966;7.958;2023-05-10T10:10:24;19.00;99.90
2603;DHT22;1311;47.966;7.958;2023-05-10T10:12:51;18.90;99.90
2603;DHT22;1311;47.966;7.958;2023-05-10T10:15:19;19.20;99.90
2603;DHT22;1311;47.966;7.958;2023-05-10T10:17:46;19.70;53.20
2603;DHT22;1311;47.966;7.958;2023-05-10T10:20:14;20.10;1.00
2603;DHT22;1311;47.966;7.958;2023-05-10T10:22:43;19.60;1.00
2603;DHT22;1311;47.966;7.958;2023-05-10T10:25:11;20.00;1.00
2603;DHT22;1311;47.966;7.958;2023-05-10T10:27:45;20.20;1.00
2603;DHT22;1311;47.966;7.958;2023-05-10T10:30:21;19.80;99.90
2603;DHT22;1311;47.966;7.958;2023-05-10T10:33:12;20.10;99.90
2603;DHT22;1311;47.966;7.958;2023-05-10T10:35:40;19.40;99.90
2603;DHT22;1311;47.966;7.958;2023-05-10T10:38:09;19.00;99.90
2603;DHT22;1311;47.966;7.958;2023-05-10T10:40:36;18.80;99.90
2603;DHT22;1311;47.966;7.958;2023-05-10T10:43:23;19.20;99.90
2603;DHT22;1311;47.966;7.958;2023-05-10T10:46:10;20.00;99.90
2603;DHT22;1311;47.966;7.958;2023-05-10T10:48:39;20.70;98.40
2603;DHT22;1311;47.966;7.958;2023-05-10T10:51:06;21.00;1.00
2603;DHT22;1311;47.966;7.958;2023-05-10T10:53:34;20.90;1.00
2603;DHT22;1311;47.966;7.958;2023-05-10T10:56:08;20.90;99.90
2603;DHT22;1311;47.966;7.958;2023-05-10T10:58:36;21.10;99.90
2603;DHT22;1311;47.966;7.958;2023-05-10T11:01:11;21.60;99.90
2603;DHT22;1311;47.966;7.958;2023-05-10T11:03:38;21.80;99.90
2603;DHT22;1311;47.966;7.958;2023-05-10T11:06:06;21.60;23.10
2603;DHT22;1311;47.966;7.958;2023-05-10T11:08:41;21.00;1.00
2603;DHT22;1311;47.966;7.958;2023-05-10T11:11:09;20.70;1.00
2603;DHT22;1311;47.966;7.958;2023-05-10T11:13:41;20.70;1.00
2603;DHT22;1311;47.966;7.958;2023-05-10T11:16:13;20.70;1.00
2603;DHT22;1311;47.966;7.958;2023-05-10T11:18:40;20.20;1.00
2603;DHT22;1311;47.966;7.958;2023-05-10T11:21:09;20.20;55.80
2603;DHT22;1311;47.966;7.958;2023-05-10T11:23:50;19.90;1.00
2603;DHT22;1311;47.966;7.958;2023-05-10T11:26:18;20.10;1.00
2603;DHT22;1311;47.966;7.958;2023-05-10T11:28:49;20.40;1.00
2603;DHT22;1311;47.966;7.958;2023-05-10T11:31:16;20.50;1.10
2603;DHT22;1311;47.966;7.958;2023-05-10T11:33:43;21.00;1.00
2603;DHT22;1311;47.966;7.958;2023-05-10T11:36:11;21.60;1.00
2603;DHT22;1311;47.966;7.958;2023-05-10T11:38:38;21.60;1.00
2603;DHT22;1311;47.966;7.958;2023-05-10T11:41:08;21.40;1.00
2603;DHT22;1311;47.966;7.958;2023-05-10T11:43:35;21.10;1.00
2603;DHT22;1311;47.966;7.958;2023-05-10T11:46:04;21.40;1.00
2603;DHT22;1311;47.966;7.958;2023-05-10T11:48:32;21.30;1.00
2603;DHT22;1311;47.966;7.958;2023-05-10T11:51:00;21.50;1.00
2603;DHT22;1311;47.966;7.958;2023-05-10T11:53:27;21.70;1.00
2603;DHT22;1311;47.966;7.958;2023-05-10T11:55:54;21.50;1.00
2603;DHT22;1311;47.966;7.958;2023-05-10T11:58:25;21.90;1.00
2603;DHT22;1311;47.966;7.958;2023-05-10T12:00:51;21.30;1.00
2603;DHT22;1311;47.966;7.958;2023-05-10T12:03:18;21.10;1.00
2603;DHT22;1311;47.966;7.958;2023-05-10T12:05:45;20.70;1.00
2603;DHT22;1311;47.966;7.958;2023-05-10T12:08:13;21.00;1.00
2603;DHT22;1311;47.966;7.958;2023-05-10T12:10:40;20.90;1.00
2603;DHT22;1311;47.966;7.958;2023-05-10T12:13:11;20.80;1.00
2603;DHT22;1311;47.966;7.958;2023-05-10T12:15:41;21.20;1.00
2603;DHT22;1311;47.966;7.958;2023-05-10T12:18:09;21.10;1.00
2603;DHT22;1311;47.966;7.958;2023-05-10T12:20:37;20.80;1.00
2603;DHT22;1311;47.966;7.958;2023-05-10T12:23:04;20.80;1.00
2603;DHT22;1311;47.966;7.958;2023-05-10T12:25:32;20.90;1.00
2603;DHT22;1311;47.966;7.958;2023-05-10T12:28:02;21.10;1.00
2603;DHT22;1311;47.966;7.958;2023-05-10T12:30:31;21.10;1.00
2603;DHT22;1311;47.966;7.958;2023-05-10T12:33:08;20.90;1.00
2603;DHT22;1311;47.966;7.958;2023-05-10T12:35:44;21.20;1.00
2603;DHT22;1311;47.966;7.958;2023-05-10T12:38:28;21.10;1.00
2603;DHT22;1311;47.966;7.958;2023-05-10T12:40:59;20.80;1.00
2603;DHT22;1311;47.966;7.958;2023-05-10T12:43:27;20.20;1.00
2603;DHT22;1311;47.966;7.958;2023-05-10T12:45:54;19.80;1.00
2603;DHT22;1311;47.966;7.958;2023-05-10T12:48:23;19.50;1.00
2603;DHT22;1311;47.966;7.958;2023-05-10T12:50:50;18.70;1.00
2603;DHT22;1311;47.966;7.958;2023-05-10T12:53:17;18.10;99.90
2603;DHT22;1311;47.966;7.958;2023-05-10T12:55:44;17.50;18.60
2603;DHT22;1311;47.966;7.958;2023-05-10T12:58:11;17.00;1.00
2603;DHT22;1311;47.966;7.958;2023-05-10T13:00:38;17.20;99.90
2603;DHT22;1311;47.966;7.958;2023-05-10T13:03:05;17.90;1.00
2603;DHT22;1311;47.966;7.958;2023-05-10T13:05:33;18.80;99.90
2603;DHT22;1311;47.966;7.958;2023-05-10T13:08:00;19.10;99.90
2603;DHT22;1311;47.966;7.958;2023-05-10T13:10:29;19.80;99.90
2603;DHT22;1311;47.966;7.958;2023-05-10T13:12:57;19.40;1.00
2603;DHT22;1311;47.966;7.958;2023-05-10T13:15:24;19.90;1.00
2603;DHT22;1311;47.966;7.958;2023-05-10T13:17:53;20.00;1.00
2603;DHT22;1311;47.966;7.958;2023-05-10T13:20:20;20.10;99.90
2603;DHT22;1311;47.966;7.958;2023-05-10T13:22:49;19.70;99.90
2603;DHT22;1311;47.966;7.958;2023-05-10T13:25:16;19.90;99.90
2603;DHT22;1311;47.966;7.958;2023-05-10T13:27:43;19.90;99.90
2603;DHT22;1311;47.966;7.958;2023-05-10T13:30:10;19.80;99.90
2603;DHT22;1311;47.966;7.958;2023-05-10T13:32:38;19.90;99.90
2603;DHT22;1311;47.966;7.958;2023-05-10T13:35:06;20.20;99.90
2603;DHT22;1311;47.966;7.958;2023-05-10T13:37:33;19.80;99.90
2603;DHT22;1311;47.966;7.958;2023-05-10T13:40:05;19.90;99.90
2603;DHT22;1311;47.966;7.958;2023-05-10T13:42:32;20.00;99.90
2603;DHT22;1311;47.966;7.958;2023-05-10T13:45:00;20.00;99.90
2603;DHT22;1311;47.966;7.958;2023-05-10T13:47:27;20.10;99.90
2603;DHT22;1311;47.966;7.958;2023-05-10T13:49:54;20.30;99.90
2603;DHT22;1311;47.966;7.958;2023-05-10T13:52:21;20.50;99.90
2603;DHT22;1311;47.966;7.958;2023-05-10T13:54:48;20.60;99.90
2603;DHT22;1311;47.966;7.958;2023-05-10T13:57:16;20.80;99.90
2603;DHT22;1311;47.966;7.958;2023-05-10T13:59:43;20.90;99.90
2603;DHT22;1311;47.966;7.958;2023-05-10T14:02:10;21.10;6.10
2603;DHT22;1311;47.966;7.958;2023-05-10T14:04:37;21.20;1.00
2603;DHT22;1311;47.966;7.958;2023-05-10T14:07:05;20.90;1.00
2603;DHT22;1311;47.966;7.958;2023-05-10T14:09:32;20.80;1.00
2603;DHT22;1311;47.966;7.958;2023-05-10T14:11:59;20.40;1.00
2603;DHT22;1311;47.966;7.958;2023-05-10T14:14:27;19.80;1.00
2603;DHT22;1311;47.966;7.958;2023-05-10T14:16:55;19.40;1.00
2603;DHT22;1311;47.966;7.958;2023-05-10T14:19:21;19.10;99.90
2603;DHT22;1311;47.966;7.958;2023-05-10T14:21:52;19.10;99.90
2603;DHT22;1311;47.966;7.958;2023-05-10T14:24:19;19.10;1.00
2603;DHT22;1311;47.966;7.958;2023-05-10T14:26:46;19.30;1.00
2603;DHT22;1311;47.966;7.958;2023-05-10T14:29:13;19.40;99.90
2603;DHT22;1311;47.966;7.958;2023-05-10T14:31:41;19.50;1.00
2603;DHT22;1311;47.966;7.958;2023-05-10T14:34:08;19.60;1.00
2603;DHT22;1311;47.966;7.958;2023-05-10T14:36:35;19.30;1.00
2603;DHT22;1311;47.966;7.958;2023-05-10T14:39:03;19.20;1.00
2603;DHT22;1311;47.966;7.958;2023-05-10T14:41:30;19.20;1.00
2603;DHT22;1311;47.966;7.958;2023-05-10T14:43:57;19.30;1.00
2603;DHT22;1311;47.966;7.958;2023-05-10T14:46:24;19.60;1.00
2603;DHT22;1311;47.966;7.958;2023-05-10T14:48:53;19.30;99.90
2603;DHT22;1311;47.966;7.958;2023-05-10T14:51:20;19.40;99.90
2603;DHT22;1311;47.966;7.958;2023-05-10T14:53:47;19.30;99.90
2603;DHT22;1311;47.966;7.958;2023-05-10T14:56:15;19.40;99.90
2603;DHT22;1311;47.966;7.958;2023-05-10T14:58:42;19.40;99.90
2603;DHT22;1311;47.966;7.958;2023-05-10T15:01:08;19.70;99.90
2603;DHT22;1311;47.966;7.958;2023-05-10T15:03:35;19.90;99.90
2603;DHT22;1311;47.966;7.958;2023-05-10T15:06:04;20.30;99.90
2603;DHT22;1311;47.966;7.958;2023-05-10T15:08:31;20.10;99.90
2603;DHT22;1311;47.966;7.958;2023-05-10T15:10:58;19.90;99.90
2603;DHT22;1311;47.966;7.958;2023-05-10T15:13:25;19.80;99.90
2603;DHT22;1311;47.966;7.958;2023-05-10T15:15:52;19.70;99.90
2603;DHT22;1311;47.966;7.958;2023-05-10T15:18:19;19.60;99.90
2603;DHT22;1311;47.966;7.958;2023-05-10T15:20:46;19.60;99.90
2603;DHT22;1311;47.966;7.958;2023-05-10T15:23:14;19.60;99.90
2603;DHT22;1311;47.966;7.958;2023-05-10T15:25:41;19.60;99.90
2603;DHT22;1311;47.966;7.958;2023-05-10T15:28:11;19.20;99.90
2603;DHT22;1311;47.966;7.958;2023-05-10T15:30:38;19.10;99.90
2603;DHT22;1311;47.966;7.958;2023-05-10T15:33:05;19.00;99.90
2603;DHT22;1311;47.966;7.958;2023-05-10T15:35:33;19.30;99.90
2603;DHT22;1311;47.966;7.958;2023-05-10T15:38:01;19.20;99.90
2603;DHT22;1311;47.966;7.958;2023-05-10T15:40:29;19.40;99.90
2603;DHT22;1311;47.966;7.958;2023-05-10T15:42:56;19.20;99.90
2603;DHT22;1311;47.966;7.958;2023-05-10T15:45:23;19.20;99.90
2603;DHT22;1311;47.966;7.958;2023-05-10T15:47:50;19.30;99.90
2603;DHT22;1311;47.966;7.958;2023-05-10T15:50:17;19.40;99.90
2603;DHT22;1311;47.966;7.958;2023-05-10T15:52:43;19.30;99.90
2603;DHT22;1311;47.966;7.958;2023-05-10T15:55:10;19.60;99.90
2603;DHT22;1311;47.966;7.958;2023-05-10T15:57:39;19.30;99.90
2603;DHT22;1311;47.966;7.958;2023-05-10T16:00:09;19.50;99.90
2603;DHT22;1311;47.966;7.958;2023-05-10T16:02:36;19.80;99.90
2603;DHT22;1311;47.966;7.958;2023-05-10T16:05:04;19.50;99.90
2603;DHT22;1311;47.966;7.958;2023-05-10T16:07:32;19.40;99.90
2603;DHT22;1311;47.966;7.958;2023-05-10T16:09:59;19.40;99.90
2603;DHT22;1311;47.966;7.958;2023-05-10T16:12:28;19.10;99.90